x

Sentry Shoal (46131) Wave Buoy

1:00 - Mon 5th Dec 2016 All times are PST. -8 hours from GMT.

  • Sig Wave height 1.6ft
  • Peak Period 3s
  • Wind
    16mph, 20mph gusts
  • Sea Temp 48°f
  • Ar Temp 41°f
  • Sea Pressure 1017.8mb
  • Sentry Shoal
  • Sentry Shoal

More Historic Weather Station data

Upgrade to MSW Pro to gain access to the past 30 days of data for over 8000 Wavebouys and Weather Stations around the globe.

Join Pro

Comparision Forecast

View Surf forecast
   
Seg 12/05 1:00 1.6ft 3s 16 20 mph 1017.8mb 48f 41f
12:00 1ft 2s 13 16 mph 1018.1mb 48f 41f
Dom 12/04 11:00 0.3ft 2s 9 13 mph 1018.4mb 48f 41f
10:00 0.3ft 5s 4
mph
1018.4mb 48f 41f
9:00 0.3ft 2s 4 7 mph 1018.1mb 47f 40f
8:00 0.3ft 2s 2 4 mph 1018mb 47f 41f
7:00 0.7ft 2s 4 7 mph 1018.2mb 48f 41f
6:00 0.7ft 2s 7 11 mph 1018.3mb 48f 42f
5:00 1ft 3s 9 11 mph 1018.5mb 48f 42f
4:00 1.3ft 3s 16 18 mph 1018.1mb 48f 42f
3:00 1.3ft 3s 16 18 mph 1017.8mb 48f 43f
2:00 1.3ft 3s 16 20 mph 1017.8mb 48f 42f
1:00 1.3ft 3s 13 18 mph 1018mb 48f 43f
12:00 1.6ft 3s 18 22 mph 1017.9mb 48f 42f
11:00 1.6ft 3s 20 22 mph 1018mb 48f 42f
10:00 2ft 4s 18 22 mph 1018.2mb 48f 41f
9:00 2ft 3s 20 25 mph 1017.5mb 48f 41f
8:00 1.6ft 3s 16 20 mph 1017.3mb 48f 40f
7:00 2ft 3s 18 25 mph 1016mb 48f 41f
6:00  -   -  25
mph
- - -
5:00 2ft 3s 22 27 mph 1016mb 48f 41f
4:00 1.3ft 3s 20 25 mph 1016.4mb 48f 41f
3:00 1ft 2s 16 22 mph 1016.4mb 48f 41f
2:00 1ft 3s 13 18 mph 1016.9mb 48f 41f
1:00 2ft 3s 9 16 mph 1017mb 49f 40f
12:00 1.3ft 3s 20 25 mph 1016.7mb 48f 41f
Sáb 12/03 11:00 0.7ft 2s 16 18 mph 1016.8mb 48f 42f
10:00 1ft 3s 9 11 mph 1016.7mb 48f 42f
9:00 1ft 2s 11 13 mph 1017mb 48f 42f
8:00 0.7ft 2s 16 18 mph 1017.4mb 49f 43f
7:00 0.3ft 2s 13 18 mph 1017.3mb 48f 45f
6:00 0.7ft 2s 7 9 mph 1017.7mb 49f 46f
5:00 0.7ft 3s 2 4 mph 1018.6mb 49f 45f
4:00 1ft 2s 9 11 mph 1019.1mb 49f 46f
3:00 0.7ft 2s 11 13 mph 1019.7mb 49f 45f
2:00 0.7ft 2s 9 11 mph 1019.7mb 49f 45f
1:00 0.7ft 3s 7 9 mph 1020.6mb 48f 46f
12:00 0.7ft 3s  -  mph 1021mb 48f 47f
11:00 0.7ft 3s 4
mph
1021.6mb 48f 46f
10:00 1ft 3s 9 11 mph 1021mb 48f 45f
9:00 1ft 3s 4 7 mph 1021mb 48f 45f
8:00 1.3ft 3s 4 9 mph 1020.8mb 48f 45f
7:00 1.3ft 2s 16 18 mph 1020.4mb 48f 46f
6:00 1ft 2s 13 16 mph 1020.9mb 48f 45f
5:00 0.3ft 5s 13
mph
1020.7mb 48f 45f
4:00 0.3ft 5s 9
mph
1021.2mb 48f 46f
3:00 0.3ft 5s 2 4 mph 1021.3mb 48f 45f
2:00 0.3ft 2s 4
mph
1021.2mb 48f 45f
1:00 0.3ft 2s 4 7 mph 1020.7mb 48f 44f
12:00 0.3ft 3s 7 9 mph 1020.5mb 48f 44f
Sex 12/02 11:00 0.7ft 3s 4 7 mph 1020.1mb 48f 47f
10:00 0.7ft 3s 2
mph
1019.2mb 49f 46f
9:00 0.7ft 3s 7 9 mph 1018.3mb 49f 47f
8:00 0.7ft 3s 11 13 mph 1017.5mb 49f 47f
7:00 1ft 4s 4 7 mph 1016.5mb 49f 49f
6:00 1.3ft 4s 2 4 mph 1016.2mb 49f 49f
5:00 2.5ft 4s 7 9 mph 1015.5mb 49f 49f
4:00 3.5ft 5s 11 16 mph 1015.1mb 49f 49f
3:00 4.5ft 5s 9 16 mph 1015.4mb 49f 49f
2:00 6ft 6s 20 25 mph 1014.7mb 49f 49f
1:00 6ft 6s 27 34 mph 1014.4mb 49f 49f
12:00 6ft 6s 25 29 mph 1013.9mb 49f 48f
11:00 7ft 6s 27 34 mph 1013.7mb 49f 48f
10:00 7ft 7s 31 38 mph 1014mb 49f 47f
9:00 7ft 6s 25 31 mph 1014.8mb 49f 48f
8:00 7ft 6s 34 40 mph 1015.1mb 49f 47f
7:00 7.5ft 6s 31 36 mph 1017.1mb 49f 47f
6:00 6ft 6s 31 36 mph 1017.7mb 49f 46f
5:00 6ft 6s 29 36 mph 1019.2mb 49f 46f
4:00 6ft 5s 29 34 mph 1019.4mb 49f 46f
3:00  -   -  27
mph
- - -
2:00 4.5ft 5s 27 31 mph 1021.4mb 49f 45f
1:00 4.5ft 5s 25 31 mph 1022.7mb 49f 45f
12:00 3.5ft 5s 25 29 mph 1023.3mb 49f 45f
Qui 12/01 11:00 4ft 5s 22 27 mph 1024mb 49f 44f
10:00 4.5ft 5s 22 27 mph 1024.2mb 49f 44f
9:00 4.5ft 5s 20 25 mph 1023.9mb 49f 45f
8:00 4ft 5s 20 25 mph 1024.1mb 49f 45f
7:00 3.5ft 4s 18 22 mph 1024.3mb 49f 45f
6:00 3.5ft 4s 20 22 mph 1024.1mb 49f 45f
5:00 2.5ft 4s 18 22 mph 1024.3mb 48f 45f
4:00 2.5ft 3s 20 25 mph 1024.3mb 48f 45f
3:00 1.6ft 3s 18 22 mph 1024.4mb 48f 45f
2:00 1.6ft 3s 16 20 mph 1024.1mb 48f 44f
1:00 1.3ft 3s 16 18 mph 1024.1mb 48f 44f
12:00 1ft 2s 11 13 mph 1024.3mb 48f 43f
11:00 0.7ft 2s 11 13 mph 1024.1mb 48f 43f